sensor_id;sensor_type;location;lat;lon;timestamp;P1;durP1;ratioP1;P2;durP2;ratioP2
13481;SDS011;6813;60.352;15.746;2022-09-12T00:01:10;3.45;;;2.10;;
13481;SDS011;6813;60.352;15.746;2022-09-12T00:03:42;3.65;;;1.90;;
13481;SDS011;6813;60.352;15.746;2022-09-12T00:06:12;2.03;;;1.88;;
13481;SDS011;6813;60.352;15.746;2022-09-12T00:08:44;1.90;;;1.80;;
13481;SDS011;6813;60.352;15.746;2022-09-12T00:11:10;3.20;;;1.90;;
13481;SDS011;6813;60.352;15.746;2022-09-12T00:13:37;5.82;;;2.42;;
13481;SDS011;6813;60.352;15.746;2022-09-12T00:16:04;9.95;;;2.80;;
13481;SDS011;6813;60.352;15.746;2022-09-12T00:18:31;10.27;;;2.67;;
13481;SDS011;6813;60.352;15.746;2022-09-12T00:21:00;9.68;;;3.05;;
13481;SDS011;6813;60.352;15.746;2022-09-12T00:23:28;6.83;;;2.50;;
13481;SDS011;6813;60.352;15.746;2022-09-12T00:25:55;2.33;;;2.00;;
13481;SDS011;6813;60.352;15.746;2022-09-12T00:28:20;4.80;;;2.40;;
13481;SDS011;6813;60.352;15.746;2022-09-12T00:30:47;5.43;;;1.97;;
13481;SDS011;6813;60.352;15.746;2022-09-12T00:33:14;3.60;;;1.80;;
13481;SDS011;6813;60.352;15.746;2022-09-12T00:35:42;2.90;;;1.63;;
13481;SDS011;6813;60.352;15.746;2022-09-12T00:38:08;2.30;;;1.80;;
13481;SDS011;6813;60.352;15.746;2022-09-12T00:40:34;1.50;;;1.40;;
13481;SDS011;6813;60.352;15.746;2022-09-12T00:42:59;2.20;;;2.00;;
13481;SDS011;6813;60.352;15.746;2022-09-12T00:45:29;1.70;;;1.60;;
13481;SDS011;6813;60.352;15.746;2022-09-12T00:47:56;2.77;;;1.80;;
13481;SDS011;6813;60.352;15.746;2022-09-12T00:50:26;2.70;;;1.70;;
13481;SDS011;6813;60.352;15.746;2022-09-12T00:53:02;3.08;;;2.05;;
13481;SDS011;6813;60.352;15.746;2022-09-12T00:55:40;1.92;;;1.70;;
13481;SDS011;6813;60.352;15.746;2022-09-12T01:00:36;2.13;;;1.50;;
13481;SDS011;6813;60.352;15.746;2022-09-12T01:03:09;2.40;;;1.80;;
13481;SDS011;6813;60.352;15.746;2022-09-12T01:05:41;3.13;;;1.70;;
13481;SDS011;6813;60.352;15.746;2022-09-12T01:08:11;3.10;;;2.00;;
13481;SDS011;6813;60.352;15.746;2022-09-12T01:10:37;2.27;;;1.70;;
13481;SDS011;6813;60.352;15.746;2022-09-12T01:13:05;2.90;;;1.77;;
13481;SDS011;6813;60.352;15.746;2022-09-12T01:15:32;1.83;;;1.63;;
13481;SDS011;6813;60.352;15.746;2022-09-12T01:35:22;4.60;;;2.20;;
13481;SDS011;6813;60.352;15.746;2022-09-12T01:53:51;1.77;;;1.60;;
13481;SDS011;6813;60.352;15.746;2022-09-12T01:56:24;2.83;;;1.57;;
13481;SDS011;6813;60.352;15.746;2022-09-12T01:58:55;3.73;;;1.60;;
13481;SDS011;6813;60.352;15.746;2022-09-12T02:01:33;2.63;;;1.57;;
13481;SDS011;6813;60.352;15.746;2022-09-12T02:04:22;1.80;;;1.70;;
13481;SDS011;6813;60.352;15.746;2022-09-12T02:09:44;1.87;;;1.67;;
13481;SDS011;6813;60.352;15.746;2022-09-12T02:12:34;1.83;;;1.70;;
13481;SDS011;6813;60.352;15.746;2022-09-12T02:15:06;2.40;;;2.00;;
13481;SDS011;6813;60.352;15.746;2022-09-12T02:17:35;1.77;;;1.67;;
13481;SDS011;6813;60.352;15.746;2022-09-12T02:20:15;1.50;;;1.40;;
13481;SDS011;6813;60.352;15.746;2022-09-12T02:22:48;4.83;;;2.00;;
13481;SDS011;6813;60.352;15.746;2022-09-12T02:25:16;2.93;;;1.90;;
13481;SDS011;6813;60.352;15.746;2022-09-12T02:27:44;1.80;;;1.70;;
13481;SDS011;6813;60.352;15.746;2022-09-12T02:30:14;4.70;;;1.90;;
13481;SDS011;6813;60.352;15.746;2022-09-12T02:35:45;2.20;;;1.90;;
13481;SDS011;6813;60.352;15.746;2022-09-12T02:38:45;2.30;;;1.90;;
13481;SDS011;6813;60.352;15.746;2022-09-12T02:41:13;1.73;;;1.63;;
13481;SDS011;6813;60.352;15.746;2022-09-12T02:43:41;4.10;;;1.97;;
13481;SDS011;6813;60.352;15.746;2022-09-12T02:46:08;3.27;;;2.03;;
13481;SDS011;6813;60.352;15.746;2022-09-12T02:48:38;1.50;;;1.40;;
13481;SDS011;6813;60.352;15.746;2022-09-12T02:51:06;3.10;;;1.67;;
13481;SDS011;6813;60.352;15.746;2022-09-12T02:53:32;2.40;;;2.20;;
13481;SDS011;6813;60.352;15.746;2022-09-12T02:55:59;2.10;;;1.90;;
13481;SDS011;6813;60.352;15.746;2022-09-12T02:58:26;2.20;;;1.80;;
13481;SDS011;6813;60.352;15.746;2022-09-12T03:06:11;3.47;;;2.10;;
13481;SDS011;6813;60.352;15.746;2022-09-12T03:08:52;4.03;;;1.80;;
13481;SDS011;6813;60.352;15.746;2022-09-12T03:20:21;3.97;;;2.10;;
13481;SDS011;6813;60.352;15.746;2022-09-12T03:26:18;2.77;;;2.00;;
13481;SDS011;6813;60.352;15.746;2022-09-12T03:28:50;2.27;;;1.73;;
13481;SDS011;6813;60.352;15.746;2022-09-12T03:31:24;3.60;;;1.93;;
13481;SDS011;6813;60.352;15.746;2022-09-12T03:33:50;3.73;;;2.17;;
13481;SDS011;6813;60.352;15.746;2022-09-12T03:36:19;4.40;;;2.30;;
13481;SDS011;6813;60.352;15.746;2022-09-12T03:38:50;2.93;;;2.17;;
13481;SDS011;6813;60.352;15.746;2022-09-12T03:41:16;3.70;;;2.30;;
13481;SDS011;6813;60.352;15.746;2022-09-12T03:43:43;3.17;;;2.07;;
13481;SDS011;6813;60.352;15.746;2022-09-12T03:46:08;5.30;;;2.03;;
13481;SDS011;6813;60.352;15.746;2022-09-12T03:48:34;3.27;;;1.80;;
13481;SDS011;6813;60.352;15.746;2022-09-12T03:51:01;5.00;;;2.00;;
13481;SDS011;6813;60.352;15.746;2022-09-12T03:53:30;3.63;;;1.83;;
13481;SDS011;6813;60.352;15.746;2022-09-12T03:55:56;3.37;;;1.80;;
13481;SDS011;6813;60.352;15.746;2022-09-12T03:58:23;2.23;;;2.13;;
13481;SDS011;6813;60.352;15.746;2022-09-12T04:00:49;2.83;;;2.13;;
13481;SDS011;6813;60.352;15.746;2022-09-12T04:03:15;2.83;;;2.20;;
13481;SDS011;6813;60.352;15.746;2022-09-12T04:05:40;4.50;;;1.93;;
13481;SDS011;6813;60.352;15.746;2022-09-12T04:08:06;2.70;;;1.93;;
13481;SDS011;6813;60.352;15.746;2022-09-12T04:10:32;2.50;;;2.30;;
13481;SDS011;6813;60.352;15.746;2022-09-12T04:12:57;4.23;;;1.87;;
13481;SDS011;6813;60.352;15.746;2022-09-12T04:15:23;2.50;;;2.30;;
13481;SDS011;6813;60.352;15.746;2022-09-12T04:17:49;2.57;;;2.00;;
13481;SDS011;6813;60.352;15.746;2022-09-12T04:20:14;3.70;;;2.30;;
13481;SDS011;6813;60.352;15.746;2022-09-12T04:22:40;3.30;;;2.30;;
13481;SDS011;6813;60.352;15.746;2022-09-12T04:25:06;3.03;;;2.10;;
13481;SDS011;6813;60.352;15.746;2022-09-12T04:27:33;2.60;;;2.40;;
13481;SDS011;6813;60.352;15.746;2022-09-12T04:29:59;3.27;;;2.53;;
13481;SDS011;6813;60.352;15.746;2022-09-12T04:32:27;3.00;;;2.10;;
13481;SDS011;6813;60.352;15.746;2022-09-12T04:34:55;3.97;;;2.10;;
13481;SDS011;6813;60.352;15.746;2022-09-12T04:37:21;2.67;;;2.10;;
13481;SDS011;6813;60.352;15.746;2022-09-12T04:39:47;3.13;;;2.80;;
13481;SDS011;6813;60.352;15.746;2022-09-12T04:42:13;3.40;;;3.10;;
13481;SDS011;6813;60.352;15.746;2022-09-12T04:44:41;3.37;;;3.07;;
13481;SDS011;6813;60.352;15.746;2022-09-12T04:47:06;1.80;;;1.70;;
13481;SDS011;6813;60.352;15.746;2022-09-12T04:49:32;2.83;;;2.03;;
13481;SDS011;6813;60.352;15.746;2022-09-12T04:51:58;2.10;;;1.90;;
13481;SDS011;6813;60.352;15.746;2022-09-12T04:54:24;4.57;;;2.07;;
13481;SDS011;6813;60.352;15.746;2022-09-12T04:56:50;2.03;;;1.30;;
13481;SDS011;6813;60.352;15.746;2022-09-12T04:59:17;5.43;;;1.97;;
13481;SDS011;6813;60.352;15.746;2022-09-12T05:01:43;5.00;;;2.20;;
13481;SDS011;6813;60.352;15.746;2022-09-12T05:04:09;4.67;;;2.27;;
13481;SDS011;6813;60.352;15.746;2022-09-12T05:06:37;2.77;;;2.40;;
13481;SDS011;6813;60.352;15.746;2022-09-12T05:09:03;2.53;;;2.33;;
13481;SDS011;6813;60.352;15.746;2022-09-12T05:11:31;4.70;;;2.93;;
13481;SDS011;6813;60.352;15.746;2022-09-12T05:14:01;6.50;;;2.80;;
13481;SDS011;6813;60.352;15.746;2022-09-12T05:16:28;4.40;;;2.70;;
13481;SDS011;6813;60.352;15.746;2022-09-12T05:18:55;4.97;;;2.77;;
13481;SDS011;6813;60.352;15.746;2022-09-12T05:21:22;3.53;;;2.30;;
13481;SDS011;6813;60.352;15.746;2022-09-12T05:23:52;3.23;;;2.47;;
13481;SDS011;6813;60.352;15.746;2022-09-12T05:26:19;2.43;;;2.23;;
13481;SDS011;6813;60.352;15.746;2022-09-12T05:28:46;2.90;;;2.20;;
13481;SDS011;6813;60.352;15.746;2022-09-12T05:31:16;4.30;;;2.90;;
13481;SDS011;6813;60.352;15.746;2022-09-12T05:33:43;4.70;;;2.77;;
13481;SDS011;6813;60.352;15.746;2022-09-12T05:36:14;2.10;;;1.90;;
13481;SDS011;6813;60.352;15.746;2022-09-12T05:38:45;4.80;;;2.43;;
13481;SDS011;6813;60.352;15.746;2022-09-12T05:41:12;4.80;;;2.90;;
13481;SDS011;6813;60.352;15.746;2022-09-12T05:43:40;6.50;;;2.53;;
13481;SDS011;6813;60.352;15.746;2022-09-12T05:46:07;6.07;;;2.80;;
13481;SDS011;6813;60.352;15.746;2022-09-12T05:48:41;6.17;;;2.20;;
13481;SDS011;6813;60.352;15.746;2022-09-12T05:51:09;2.83;;;2.63;;
13481;SDS011;6813;60.352;15.746;2022-09-12T05:53:43;5.50;;;2.60;;
13481;SDS011;6813;60.352;15.746;2022-09-12T05:56:11;3.17;;;2.33;;
13481;SDS011;6813;60.352;15.746;2022-09-12T05:58:40;2.87;;;2.33;;
13481;SDS011;6813;60.352;15.746;2022-09-12T06:01:14;2.73;;;2.33;;
13481;SDS011;6813;60.352;15.746;2022-09-12T06:06:16;3.30;;;2.70;;
13481;SDS011;6813;60.352;15.746;2022-09-12T06:08:44;2.90;;;2.70;;
13481;SDS011;6813;60.352;15.746;2022-09-12T06:11:12;3.83;;;2.40;;
13481;SDS011;6813;60.352;15.746;2022-09-12T06:13:40;2.57;;;2.37;;
13481;SDS011;6813;60.352;15.746;2022-09-12T06:16:10;4.63;;;2.63;;
13481;SDS011;6813;60.352;15.746;2022-09-12T06:18:45;8.17;;;2.97;;
13481;SDS011;6813;60.352;15.746;2022-09-12T06:21:19;3.90;;;2.80;;
13481;SDS011;6813;60.352;15.746;2022-09-12T06:23:46;9.03;;;3.53;;
13481;SDS011;6813;60.352;15.746;2022-09-12T06:26:13;4.53;;;2.90;;
13481;SDS011;6813;60.352;15.746;2022-09-12T06:28:41;5.67;;;2.77;;
13481;SDS011;6813;60.352;15.746;2022-09-12T06:31:16;3.33;;;3.03;;
13481;SDS011;6813;60.352;15.746;2022-09-12T06:33:46;3.60;;;2.97;;
13481;SDS011;6813;60.352;15.746;2022-09-12T06:36:18;4.50;;;2.77;;
13481;SDS011;6813;60.352;15.746;2022-09-12T06:38:46;4.50;;;3.20;;
13481;SDS011;6813;60.352;15.746;2022-09-12T06:41:15;2.73;;;2.07;;
13481;SDS011;6813;60.352;15.746;2022-09-12T06:43:41;9.67;;;2.90;;
13481;SDS011;6813;60.352;15.746;2022-09-12T06:46:07;3.87;;;2.80;;
13481;SDS011;6813;60.352;15.746;2022-09-12T06:48:34;4.80;;;2.70;;
13481;SDS011;6813;60.352;15.746;2022-09-12T06:51:01;3.83;;;2.97;;
13481;SDS011;6813;60.352;15.746;2022-09-12T06:53:29;5.85;;;3.10;;
13481;SDS011;6813;60.352;15.746;2022-09-12T06:55:58;2.90;;;2.25;;
13481;SDS011;6813;60.352;15.746;2022-09-12T06:58:28;3.60;;;3.00;;
13481;SDS011;6813;60.352;15.746;2022-09-12T07:01:11;3.10;;;2.80;;
13481;SDS011;6813;60.352;15.746;2022-09-12T07:03:39;4.13;;;2.60;;
13481;SDS011;6813;60.352;15.746;2022-09-12T07:06:12;3.53;;;2.70;;
13481;SDS011;6813;60.352;15.746;2022-09-12T07:08:39;3.50;;;2.60;;
13481;SDS011;6813;60.352;15.746;2022-09-12T07:13:48;3.03;;;2.65;;
13481;SDS011;6813;60.352;15.746;2022-09-12T07:16:15;5.10;;;3.00;;
13481;SDS011;6813;60.352;15.746;2022-09-12T07:18:41;5.35;;;3.17;;
13481;SDS011;6813;60.352;15.746;2022-09-12T07:21:11;4.78;;;3.10;;
13481;SDS011;6813;60.352;15.746;2022-09-12T07:23:38;4.00;;;2.97;;
13481;SDS011;6813;60.352;15.746;2022-09-12T07:26:06;3.22;;;2.92;;
13481;SDS011;6813;60.352;15.746;2022-09-12T07:28:34;4.85;;;2.47;;
13481;SDS011;6813;60.352;15.746;2022-09-12T07:31:04;5.60;;;2.60;;
13481;SDS011;6813;60.352;15.746;2022-09-12T07:33:31;3.08;;;2.28;;
13481;SDS011;6813;60.352;15.746;2022-09-12T07:36:01;5.07;;;2.50;;
13481;SDS011;6813;60.352;15.746;2022-09-12T07:38:30;2.80;;;2.45;;
13481;SDS011;6813;60.352;15.746;2022-09-12T07:40:56;3.53;;;2.53;;
13481;SDS011;6813;60.352;15.746;2022-09-12T07:43:23;2.83;;;2.53;;
13481;SDS011;6813;60.352;15.746;2022-09-12T07:45:53;6.15;;;2.55;;
13481;SDS011;6813;60.352;15.746;2022-09-12T07:48:20;3.83;;;2.85;;
13481;SDS011;6813;60.352;15.746;2022-09-12T07:50:45;5.20;;;2.60;;
13481;SDS011;6813;60.352;15.746;2022-09-12T07:53:11;3.40;;;2.10;;
13481;SDS011;6813;60.352;15.746;2022-09-12T07:55:37;2.50;;;2.30;;
13481;SDS011;6813;60.352;15.746;2022-09-12T07:58:03;8.65;;;2.17;;
13481;SDS011;6813;60.352;15.746;2022-09-12T08:00:29;3.13;;;2.30;;
13481;SDS011;6813;60.352;15.746;2022-09-12T08:03:00;2.42;;;2.22;;
13481;SDS011;6813;60.352;15.746;2022-09-12T08:05:27;2.22;;;2.03;;
13481;SDS011;6813;60.352;15.746;2022-09-12T08:07:54;2.42;;;1.98;;
13481;SDS011;6813;60.352;15.746;2022-09-12T08:10:19;3.05;;;1.83;;
13481;SDS011;6813;60.352;15.746;2022-09-12T08:12:45;4.20;;;2.13;;
13481;SDS011;6813;60.352;15.746;2022-09-12T08:15:11;3.20;;;1.80;;
13481;SDS011;6813;60.352;15.746;2022-09-12T08:17:36;3.42;;;1.70;;
13481;SDS011;6813;60.352;15.746;2022-09-12T08:20:02;3.20;;;1.70;;
13481;SDS011;6813;60.352;15.746;2022-09-12T08:22:29;2.20;;;1.77;;
13481;SDS011;6813;60.352;15.746;2022-09-12T08:24:55;1.58;;;1.48;;
13481;SDS011;6813;60.352;15.746;2022-09-12T08:27:21;1.73;;;1.60;;
13481;SDS011;6813;60.352;15.746;2022-09-12T08:29:46;2.47;;;1.70;;
13481;SDS011;6813;60.352;15.746;2022-09-12T08:32:12;2.25;;;1.70;;
13481;SDS011;6813;60.352;15.746;2022-09-12T08:34:38;2.53;;;1.77;;
13481;SDS011;6813;60.352;15.746;2022-09-12T08:37:03;2.88;;;1.65;;
13481;SDS011;6813;60.352;15.746;2022-09-12T08:39:29;2.78;;;1.70;;
13481;SDS011;6813;60.352;15.746;2022-09-12T08:42:00;2.35;;;1.98;;
13481;SDS011;6813;60.352;15.746;2022-09-12T08:53:19;2.15;;;1.80;;
13481;SDS011;6813;60.352;15.746;2022-09-12T08:58:03;2.13;;;1.92;;
13481;SDS011;6813;60.352;15.746;2022-09-12T09:00:39;4.25;;;1.92;;
13481;SDS011;6813;60.352;15.746;2022-09-12T09:03:59;3.80;;;2.00;;
13481;SDS011;6813;60.352;15.746;2022-09-12T09:14:42;5.10;;;1.80;;
13481;SDS011;6813;60.352;15.746;2022-09-12T09:18:01;3.17;;;2.13;;
13481;SDS011;6813;60.352;15.746;2022-09-12T09:22:45;1.80;;;1.70;;
13481;SDS011;6813;60.352;15.746;2022-09-12T09:25:18;4.53;;;2.08;;
13481;SDS011;6813;60.352;15.746;2022-09-12T09:27:49;4.50;;;1.88;;
13481;SDS011;6813;60.352;15.746;2022-09-12T09:30:21;2.40;;;1.88;;
13481;SDS011;6813;60.352;15.746;2022-09-12T09:32:51;4.60;;;2.22;;
13481;SDS011;6813;60.352;15.746;2022-09-12T09:43:11;2.25;;;2.00;;
13481;SDS011;6813;60.352;15.746;2022-09-12T09:45:48;2.58;;;1.92;;
13481;SDS011;6813;60.352;15.746;2022-09-12T09:48:23;3.47;;;1.90;;
13481;SDS011;6813;60.352;15.746;2022-09-12T09:51:01;10.15;;;2.15;;
13481;SDS011;6813;60.352;15.746;2022-09-12T09:55:58;3.08;;;2.03;;
13481;SDS011;6813;60.352;15.746;2022-09-12T09:58:31;2.00;;;1.65;;
13481;SDS011;6813;60.352;15.746;2022-09-12T10:01:05;2.72;;;1.92;;
13481;SDS011;6813;60.352;15.746;2022-09-12T10:03:38;3.05;;;2.13;;
13481;SDS011;6813;60.352;15.746;2022-09-12T10:06:06;2.67;;;2.00;;
13481;SDS011;6813;60.352;15.746;2022-09-12T10:08:48;1.90;;;1.80;;
13481;SDS011;6813;60.352;15.746;2022-09-12T10:18:58;4.28;;;1.98;;
13481;SDS011;6813;60.352;15.746;2022-09-12T10:26:48;2.05;;;1.80;;
13481;SDS011;6813;60.352;15.746;2022-09-12T10:29:27;2.28;;;1.80;;
13481;SDS011;6813;60.352;15.746;2022-09-12T10:31:57;2.35;;;1.65;;
13481;SDS011;6813;60.352;15.746;2022-09-12T10:34:38;2.30;;;1.60;;
13481;SDS011;6813;60.352;15.746;2022-09-12T10:37:08;4.55;;;1.52;;
13481;SDS011;6813;60.352;15.746;2022-09-12T10:39:55;1.92;;;1.73;;
13481;SDS011;6813;60.352;15.746;2022-09-12T10:45:29;3.88;;;1.90;;
13481;SDS011;6813;60.352;15.746;2022-09-12T10:47:57;4.88;;;1.63;;
13481;SDS011;6813;60.352;15.746;2022-09-12T10:50:29;2.15;;;1.80;;
13481;SDS011;6813;60.352;15.746;2022-09-12T10:53:21;3.67;;;1.67;;
13481;SDS011;6813;60.352;15.746;2022-09-12T10:59:00;3.50;;;1.80;;
13481;SDS011;6813;60.352;15.746;2022-09-12T11:02:12;1.98;;;1.80;;
13481;SDS011;6813;60.352;15.746;2022-09-12T11:08:18;4.15;;;1.90;;
13481;SDS011;6813;60.352;15.746;2022-09-12T11:10:54;1.58;;;1.48;;
13481;SDS011;6813;60.352;15.746;2022-09-12T11:30:11;2.88;;;1.88;;
13481;SDS011;6813;60.352;15.746;2022-09-12T11:35:25;2.72;;;1.50;;
13481;SDS011;6813;60.352;15.746;2022-09-12T11:40:44;1.30;;;1.20;;
13481;SDS011;6813;60.352;15.746;2022-09-12T11:45:49;1.20;;;1.10;;
13481;SDS011;6813;60.352;15.746;2022-09-12T11:51:19;3.15;;;1.23;;
13481;SDS011;6813;60.352;15.746;2022-09-12T11:53:58;2.55;;;1.55;;
13481;SDS011;6813;60.352;15.746;2022-09-12T11:56:30;1.60;;;1.40;;
13481;SDS011;6813;60.352;15.746;2022-09-12T11:58:58;2.50;;;1.60;;
13481;SDS011;6813;60.352;15.746;2022-09-12T12:01:38;1.50;;;1.40;;
13481;SDS011;6813;60.352;15.746;2022-09-12T12:04:12;1.63;;;1.20;;
13481;SDS011;6813;60.352;15.746;2022-09-12T12:06:46;1.98;;;1.73;;
13481;SDS011;6813;60.352;15.746;2022-09-12T12:09:45;1.70;;;1.60;;
13481;SDS011;6813;60.352;15.746;2022-09-12T12:12:15;2.88;;;1.48;;
13481;SDS011;6813;60.352;15.746;2022-09-12T12:14:47;2.03;;;1.50;;
13481;SDS011;6813;60.352;15.746;2022-09-12T12:17:16;2.33;;;1.60;;
13481;SDS011;6813;60.352;15.746;2022-09-12T12:19:44;2.72;;;1.77;;
13481;SDS011;6813;60.352;15.746;2022-09-12T12:22:13;5.05;;;2.00;;
13481;SDS011;6813;60.352;15.746;2022-09-12T12:40:53;1.95;;;1.85;;
13481;SDS011;6813;60.352;15.746;2022-09-12T12:43:42;2.78;;;1.67;;
13481;SDS011;6813;60.352;15.746;2022-09-12T12:46:10;2.28;;;1.60;;
13481;SDS011;6813;60.352;15.746;2022-09-12T12:48:44;4.35;;;1.90;;
13481;SDS011;6813;60.352;15.746;2022-09-12T12:51:39;1.92;;;1.80;;
13481;SDS011;6813;60.352;15.746;2022-09-12T12:54:47;4.88;;;1.60;;
13481;SDS011;6813;60.352;15.746;2022-09-12T13:04:56;2.92;;;2.05;;
13481;SDS011;6813;60.352;15.746;2022-09-12T13:07:26;1.80;;;1.70;;
13481;SDS011;6813;60.352;15.746;2022-09-12T13:10:01;1.77;;;1.67;;
13481;SDS011;6813;60.352;15.746;2022-09-12T13:12:50;2.08;;;1.90;;
13481;SDS011;6813;60.352;15.746;2022-09-12T13:20:35;2.63;;;2.20;;
13481;SDS011;6813;60.352;15.746;2022-09-12T13:23:19;2.15;;;1.95;;
13481;SDS011;6813;60.352;15.746;2022-09-12T13:25:51;5.18;;;2.28;;
13481;SDS011;6813;60.352;15.746;2022-09-12T13:28:21;2.95;;;1.98;;
13481;SDS011;6813;60.352;15.746;2022-09-12T13:30:53;2.83;;;2.25;;
13481;SDS011;6813;60.352;15.746;2022-09-12T13:33:28;1.83;;;1.58;;
13481;SDS011;6813;60.352;15.746;2022-09-12T13:36:21;3.30;;;2.10;;
13481;SDS011;6813;60.352;15.746;2022-09-12T13:44:31;3.88;;;2.35;;
13481;SDS011;6813;60.352;15.746;2022-09-12T13:47:06;2.85;;;1.67;;
13481;SDS011;6813;60.352;15.746;2022-09-12T13:49:40;3.08;;;2.13;;
13481;SDS011;6813;60.352;15.746;2022-09-12T13:52:15;3.55;;;2.03;;
13481;SDS011;6813;60.352;15.746;2022-09-12T13:54:47;2.58;;;2.25;;
13481;SDS011;6813;60.352;15.746;2022-09-12T14:00:04;3.70;;;2.10;;
13481;SDS011;6813;60.352;15.746;2022-09-12T14:02:33;3.97;;;2.80;;
13481;SDS011;6813;60.352;15.746;2022-09-12T14:05:00;4.68;;;2.30;;
13481;SDS011;6813;60.352;15.746;2022-09-12T14:07:54;2.50;;;2.13;;
13481;SDS011;6813;60.352;15.746;2022-09-12T14:10:33;4.05;;;2.30;;
13481;SDS011;6813;60.352;15.746;2022-09-12T14:13:02;4.53;;;2.40;;
13481;SDS011;6813;60.352;15.746;2022-09-12T14:15:35;3.55;;;2.08;;
13481;SDS011;6813;60.352;15.746;2022-09-12T14:18:03;4.55;;;2.10;;
13481;SDS011;6813;60.352;15.746;2022-09-12T14:20:34;3.83;;;2.15;;
13481;SDS011;6813;60.352;15.746;2022-09-12T14:23:24;2.13;;;1.90;;
13481;SDS011;6813;60.352;15.746;2022-09-12T14:25:54;3.00;;;1.90;;
13481;SDS011;6813;60.352;15.746;2022-09-12T14:28:23;4.05;;;2.00;;
13481;SDS011;6813;60.352;15.746;2022-09-12T14:33:31;4.22;;;2.10;;
13481;SDS011;6813;60.352;15.746;2022-09-12T14:36:14;2.47;;;1.80;;
13481;SDS011;6813;60.352;15.746;2022-09-12T14:39:00;6.57;;;1.90;;
13481;SDS011;6813;60.352;15.746;2022-09-12T14:41:28;4.43;;;1.85;;
13481;SDS011;6813;60.352;15.746;2022-09-12T14:43:58;5.72;;;2.50;;
13481;SDS011;6813;60.352;15.746;2022-09-12T14:46:32;4.25;;;2.05;;
13481;SDS011;6813;60.352;15.746;2022-09-12T14:49:05;4.78;;;1.92;;
13481;SDS011;6813;60.352;15.746;2022-09-12T14:51:35;4.22;;;1.90;;
13481;SDS011;6813;60.352;15.746;2022-09-12T14:54:04;5.18;;;2.40;;
13481;SDS011;6813;60.352;15.746;2022-09-12T14:56:37;2.33;;;2.10;;
13481;SDS011;6813;60.352;15.746;2022-09-12T15:04:39;3.55;;;2.13;;
13481;SDS011;6813;60.352;15.746;2022-09-12T15:10:04;5.90;;;2.33;;
13481;SDS011;6813;60.352;15.746;2022-09-12T15:12:30;3.05;;;2.30;;
13481;SDS011;6813;60.352;15.746;2022-09-12T15:15:11;4.47;;;2.25;;
13481;SDS011;6813;60.352;15.746;2022-09-12T15:17:38;2.55;;;1.90;;
13481;SDS011;6813;60.352;15.746;2022-09-12T15:20:04;1.77;;;1.60;;
13481;SDS011;6813;60.352;15.746;2022-09-12T15:22:31;2.30;;;2.10;;
13481;SDS011;6813;60.352;15.746;2022-09-12T15:24:58;3.08;;;2.20;;
13481;SDS011;6813;60.352;15.746;2022-09-12T15:27:24;3.22;;;2.10;;
13481;SDS011;6813;60.352;15.746;2022-09-12T15:29:53;2.95;;;2.08;;
13481;SDS011;6813;60.352;15.746;2022-09-12T15:32:23;3.45;;;2.20;;
13481;SDS011;6813;60.352;15.746;2022-09-12T15:34:49;2.20;;;1.92;;
13481;SDS011;6813;60.352;15.746;2022-09-12T15:37:16;2.25;;;1.95;;
13481;SDS011;6813;60.352;15.746;2022-09-12T15:39:44;3.45;;;1.90;;
13481;SDS011;6813;60.352;15.746;2022-09-12T15:42:10;4.28;;;2.20;;
13481;SDS011;6813;60.352;15.746;2022-09-12T15:44:38;3.65;;;1.90;;
13481;SDS011;6813;60.352;15.746;2022-09-12T15:47:04;2.55;;;2.10;;
13481;SDS011;6813;60.352;15.746;2022-09-12T15:49:30;3.30;;;2.17;;
13481;SDS011;6813;60.352;15.746;2022-09-12T15:51:56;3.47;;;2.10;;
13481;SDS011;6813;60.352;15.746;2022-09-12T15:54:22;2.50;;;2.20;;
13481;SDS011;6813;60.352;15.746;2022-09-12T15:56:48;2.50;;;2.28;;
13481;SDS011;6813;60.352;15.746;2022-09-12T15:59:14;2.28;;;1.67;;
13481;SDS011;6813;60.352;15.746;2022-09-12T16:01:39;4.07;;;2.47;;
13481;SDS011;6813;60.352;15.746;2022-09-12T16:04:27;3.85;;;1.80;;
13481;SDS011;6813;60.352;15.746;2022-09-12T16:06:53;2.45;;;1.90;;
13481;SDS011;6813;60.352;15.746;2022-09-12T16:09:20;3.95;;;2.25;;
13481;SDS011;6813;60.352;15.746;2022-09-12T16:11:46;2.05;;;1.80;;
13481;SDS011;6813;60.352;15.746;2022-09-12T16:14:13;2.20;;;2.00;;
13481;SDS011;6813;60.352;15.746;2022-09-12T16:16:40;2.45;;;1.90;;
13481;SDS011;6813;60.352;15.746;2022-09-12T16:19:06;1.98;;;1.67;;
13481;SDS011;6813;60.352;15.746;2022-09-12T16:21:36;2.35;;;1.83;;
13481;SDS011;6813;60.352;15.746;2022-09-12T16:24:02;2.17;;;1.70;;
13481;SDS011;6813;60.352;15.746;2022-09-12T16:26:29;3.45;;;1.85;;
13481;SDS011;6813;60.352;15.746;2022-09-12T16:28:55;3.50;;;2.03;;
13481;SDS011;6813;60.352;15.746;2022-09-12T16:31:22;2.47;;;2.00;;
13481;SDS011;6813;60.352;15.746;2022-09-12T16:33:48;1.98;;;1.60;;
13481;SDS011;6813;60.352;15.746;2022-09-12T16:36:15;1.80;;;1.70;;
13481;SDS011;6813;60.352;15.746;2022-09-12T16:38:43;3.88;;;1.90;;
13481;SDS011;6813;60.352;15.746;2022-09-12T16:41:10;1.85;;;1.58;;
13481;SDS011;6813;60.352;15.746;2022-09-12T16:43:36;2.70;;;1.65;;
13481;SDS011;6813;60.352;15.746;2022-09-12T16:46:03;2.20;;;1.67;;
13481;SDS011;6813;60.352;15.746;2022-09-12T16:48:31;2.15;;;1.75;;
13481;SDS011;6813;60.352;15.746;2022-09-12T16:50:57;2.72;;;1.50;;
13481;SDS011;6813;60.352;15.746;2022-09-12T16:53:26;1.77;;;1.67;;
13481;SDS011;6813;60.352;15.746;2022-09-12T16:55:55;2.83;;;1.38;;
13481;SDS011;6813;60.352;15.746;2022-09-12T16:58:20;3.60;;;1.55;;
13481;SDS011;6813;60.352;15.746;2022-09-12T17:00:46;3.92;;;1.75;;
13481;SDS011;6813;60.352;15.746;2022-09-12T17:03:12;1.70;;;1.55;;
13481;SDS011;6813;60.352;15.746;2022-09-12T17:05:37;2.40;;;1.65;;
13481;SDS011;6813;60.352;15.746;2022-09-12T17:08:03;1.70;;;1.60;;
13481;SDS011;6813;60.352;15.746;2022-09-12T17:10:29;3.55;;;1.70;;
13481;SDS011;6813;60.352;15.746;2022-09-12T17:12:55;1.80;;;1.40;;
13481;SDS011;6813;60.352;15.746;2022-09-12T17:15:21;2.67;;;1.55;;
13481;SDS011;6813;60.352;15.746;2022-09-12T17:17:47;9.88;;;2.00;;
13481;SDS011;6813;60.352;15.746;2022-09-12T17:20:13;1.55;;;1.35;;
13481;SDS011;6813;60.352;15.746;2022-09-12T17:22:39;4.05;;;1.85;;
13481;SDS011;6813;60.352;15.746;2022-09-12T17:25:04;1.90;;;1.60;;
13481;SDS011;6813;60.352;15.746;2022-09-12T17:27:30;2.08;;;1.88;;
13481;SDS011;6813;60.352;15.746;2022-09-12T17:29:56;2.70;;;1.60;;
13481;SDS011;6813;60.352;15.746;2022-09-12T17:32:21;3.13;;;1.88;;
13481;SDS011;6813;60.352;15.746;2022-09-12T17:34:47;2.33;;;1.90;;
13481;SDS011;6813;60.352;15.746;2022-09-12T17:37:13;2.78;;;2.00;;
13481;SDS011;6813;60.352;15.746;2022-09-12T17:39:39;2.72;;;1.77;;
13481;SDS011;6813;60.352;15.746;2022-09-12T17:42:05;2.08;;;1.70;;
13481;SDS011;6813;60.352;15.746;2022-09-12T17:44:32;3.00;;;1.85;;
13481;SDS011;6813;60.352;15.746;2022-09-12T17:46:59;2.03;;;1.83;;
13481;SDS011;6813;60.352;15.746;2022-09-12T17:49:26;2.53;;;2.30;;
13481;SDS011;6813;60.352;15.746;2022-09-12T17:51:52;2.63;;;2.10;;
13481;SDS011;6813;60.352;15.746;2022-09-12T17:54:20;4.45;;;2.10;;
13481;SDS011;6813;60.352;15.746;2022-09-12T17:56:46;3.35;;;2.17;;
13481;SDS011;6813;60.352;15.746;2022-09-12T17:59:19;2.20;;;2.00;;
13481;SDS011;6813;60.352;15.746;2022-09-12T18:01:47;2.40;;;2.17;;
13481;SDS011;6813;60.352;15.746;2022-09-12T18:04:31;1.85;;;1.75;;
13481;SDS011;6813;60.352;15.746;2022-09-12T18:06:57;2.65;;;2.08;;
13481;SDS011;6813;60.352;15.746;2022-09-12T18:09:24;2.60;;;2.20;;
13481;SDS011;6813;60.352;15.746;2022-09-12T18:11:51;2.20;;;1.90;;
13481;SDS011;6813;60.352;15.746;2022-09-12T18:14:17;2.17;;;1.98;;
13481;SDS011;6813;60.352;15.746;2022-09-12T18:16:43;2.58;;;2.35;;
13481;SDS011;6813;60.352;15.746;2022-09-12T18:19:09;2.78;;;2.20;;
13481;SDS011;6813;60.352;15.746;2022-09-12T18:21:36;2.30;;;1.90;;